createdAt,value
2022-11-19T00:01:21.182Z,10.73
2022-11-19T00:06:25.530Z,7.70
2022-11-19T00:11:46.585Z,7.20
2022-11-19T00:16:50.652Z,8.10
2022-11-19T00:21:53.387Z,10.02
2022-11-19T00:26:56.786Z,10.13
2022-11-19T00:32:01.231Z,11.88
2022-11-19T00:37:04.136Z,9.95
2022-11-19T00:42:08.026Z,10.18
2022-11-19T00:47:12.173Z,9.35
2022-11-19T00:52:14.941Z,9.63
2022-11-19T00:57:18.760Z,9.82
2022-11-19T01:02:22.952Z,9.65
2022-11-19T01:07:25.779Z,10.98
2022-11-19T01:12:28.578Z,10.20
2022-11-19T01:17:32.657Z,9.65
2022-11-19T01:22:35.454Z,9.95
2022-11-19T01:27:38.353Z,11.27
2022-11-19T01:32:42.495Z,11.18
2022-11-19T01:37:45.343Z,10.90
2022-11-19T01:42:50.810Z,9.77
2022-11-19T01:47:58.178Z,10.10
2022-11-19T01:53:01.742Z,10.47
2022-11-19T01:58:08.262Z,12.32
2022-11-19T02:03:13.836Z,10.85
2022-11-19T02:08:42.504Z,10.00
2022-11-19T02:13:50.094Z,8.82
2022-11-19T02:19:01.923Z,13.23
2022-11-19T02:24:40.685Z,14.70
2022-11-19T02:30:08.316Z,18.00
2022-11-19T02:35:19.061Z,17.90
2022-11-19T02:40:27.386Z,15.10
2022-11-19T02:50:43.595Z,17.13
2022-11-19T02:56:08.655Z,16.92
2022-11-19T03:01:29.347Z,20.13
2022-11-19T03:06:34.531Z,17.33
2022-11-19T03:11:37.336Z,21.15
2022-11-19T03:16:43.734Z,22.17
2022-11-19T03:21:53.782Z,17.33
2022-11-19T03:27:02.413Z,17.40
2022-11-19T03:32:10.986Z,17.90
2022-11-19T03:37:16.836Z,16.30
2022-11-19T03:42:22.671Z,16.95
2022-11-19T03:47:31.360Z,15.65
2022-11-19T03:52:34.439Z,14.60
2022-11-19T03:57:37.252Z,14.15
2022-11-19T04:02:41.863Z,14.95
2022-11-19T04:07:44.599Z,16.17
2022-11-19T04:12:47.389Z,13.23
2022-11-19T04:17:51.561Z,13.93
2022-11-19T04:22:54.605Z,13.55
2022-11-19T04:27:57.341Z,10.07
2022-11-19T04:33:01.452Z,10.95
2022-11-19T04:38:04.904Z,11.18
2022-11-19T04:43:07.673Z,13.02
2022-11-19T04:48:11.774Z,13.95
2022-11-19T04:53:15.339Z,12.27
2022-11-19T04:58:18.108Z,12.23
2022-11-19T05:03:22.397Z,13.20
2022-11-19T05:08:25.320Z,13.00
2022-11-19T05:13:28.204Z,14.52
2022-11-19T05:18:32.405Z,12.82
2022-11-19T05:23:35.180Z,12.13
2022-11-19T05:28:39.429Z,11.68
2022-11-19T05:33:44.404Z,11.05
2022-11-19T05:38:47.165Z,14.02
2022-11-19T05:43:49.929Z,9.95
2022-11-19T05:48:54.106Z,11.70
2022-11-19T05:53:56.969Z,9.23
2022-11-19T05:58:59.877Z,9.27
2022-11-19T06:04:04.084Z,10.65
2022-11-19T06:09:07.003Z,10.18
2022-11-19T06:14:09.856Z,10.23
2022-11-19T06:19:14.051Z,11.68
2022-11-19T06:24:16.788Z,11.27
2022-11-19T06:29:21.081Z,13.07
2022-11-19T06:34:25.551Z,11.30
2022-11-19T06:39:28.349Z,14.38
2022-11-19T06:44:31.115Z,12.70
2022-11-19T06:49:35.262Z,13.75
2022-11-19T06:54:42.847Z,13.27
2022-11-19T06:59:45.984Z,10.02
2022-11-19T07:04:50.143Z,12.93
2022-11-19T07:09:52.919Z,12.38
2022-11-19T07:14:59.717Z,12.43
2022-11-19T07:20:08.274Z,14.43
2022-11-19T07:25:12.527Z,12.65
2022-11-19T07:30:16.019Z,13.82
2022-11-19T07:35:20.515Z,10.32
2022-11-19T07:40:23.313Z,10.10
2022-11-19T07:45:26.065Z,9.93
2022-11-19T07:50:30.154Z,7.90
2022-11-19T07:55:32.917Z,9.23
2022-11-19T08:00:35.692Z,9.30
2022-11-19T08:05:41.995Z,9.85
2022-11-19T08:10:44.804Z,9.88
2022-11-19T08:15:47.688Z,6.88
2022-11-19T08:20:51.818Z,7.20
2022-11-19T08:25:54.824Z,9.13
2022-11-19T08:30:57.690Z,8.57
2022-11-19T08:36:01.867Z,8.10
2022-11-19T08:41:21.877Z,10.00
2022-11-19T08:46:24.730Z,9.32
2022-11-19T08:51:28.972Z,9.20
2022-11-19T08:56:32.213Z,8.95
2022-11-19T09:01:35.051Z,6.90
2022-11-19T09:06:39.351Z,6.75
2022-11-19T09:11:43.064Z,7.47
2022-11-19T09:16:46.040Z,7.97
2022-11-19T09:21:50.235Z,9.02
2022-11-19T09:27:00.963Z,10.93
2022-11-19T09:32:05.304Z,10.55
2022-11-19T09:37:09.823Z,12.80
2022-11-19T09:42:33.142Z,10.43
2022-11-19T09:48:01.683Z,10.18
2022-11-19T09:53:18.417Z,9.40
2022-11-19T09:58:26.384Z,9.55
2022-11-19T10:03:33.501Z,10.68
2022-11-19T10:08:55.376Z,10.93
2022-11-19T10:14:09.650Z,8.05
2022-11-19T10:19:29.860Z,9.45
2022-11-19T10:24:41.468Z,8.48
2022-11-19T10:29:45.173Z,8.93
2022-11-19T10:34:49.773Z,7.90
2022-11-19T10:39:59.068Z,7.82
2022-11-19T10:45:06.103Z,8.25
2022-11-19T10:50:17.926Z,8.18
2022-11-19T10:55:27.001Z,6.53
2022-11-19T11:00:29.947Z,8.15
2022-11-19T11:05:33.143Z,9.73
2022-11-19T11:10:44.163Z,7.57
2022-11-19T11:15:49.481Z,8.18
2022-11-19T11:20:53.376Z,5.90
2022-11-19T11:26:04.518Z,5.35
2022-11-19T11:31:11.733Z,5.45
2022-11-19T11:36:20.575Z,5.18
2022-11-19T11:46:59.342Z,4.80
2022-11-19T11:52:16.721Z,5.72
2022-11-19T11:57:23.370Z,4.45
2022-11-19T12:02:30.337Z,4.05
2022-11-19T12:07:56.270Z,3.28
2022-11-19T12:13:26.039Z,3.90
2022-11-19T12:18:35.828Z,4.53
2022-11-19T12:24:04.004Z,3.90
2022-11-19T12:29:19.854Z,3.10
2022-11-19T12:35:04.073Z,3.80
2022-11-19T12:40:21.491Z,2.60
2022-11-19T12:45:37.086Z,5.57
2022-11-19T12:50:50.876Z,3.05
2022-11-19T12:56:06.212Z,4.97
2022-11-19T13:01:16.022Z,3.28
2022-11-19T13:06:23.410Z,4.65
2022-11-19T13:11:36.327Z,2.92
2022-11-19T13:16:42.550Z,3.92
2022-11-19T13:21:53.671Z,4.43
2022-11-19T13:27:00.866Z,3.85
2022-11-19T13:32:14.652Z,3.65
2022-11-19T13:37:22.853Z,3.78
2022-11-19T13:42:43.984Z,8.00
2022-11-19T13:47:58.112Z,3.25
2022-11-19T13:53:05.407Z,4.03
2022-11-19T13:58:12.930Z,3.75
2022-11-19T14:03:34.845Z,4.23
2022-11-19T14:08:50.470Z,5.63
2022-11-19T14:14:31.754Z,5.35
2022-11-19T14:20:07.867Z,6.22
2022-11-19T14:25:28.279Z,5.03
2022-11-19T14:31:02.176Z,3.95
2022-11-19T14:36:12.972Z,4.45
2022-11-19T14:41:27.391Z,3.35
2022-11-19T14:46:30.703Z,3.78
2022-11-19T14:51:38.789Z,6.03
2022-11-19T14:56:43.828Z,4.22
2022-11-19T15:01:59.073Z,8.70
2022-11-19T15:07:09.648Z,3.35
2022-11-19T15:12:12.545Z,4.95
2022-11-19T15:17:15.555Z,3.53
2022-11-19T15:22:50.249Z,5.45
2022-11-19T15:28:06.099Z,5.65
2022-11-19T15:33:35.363Z,4.90
2022-11-19T15:38:44.300Z,4.53
2022-11-19T15:43:51.901Z,5.28
2022-11-19T15:48:59.670Z,6.57
2022-11-19T15:54:06.863Z,6.23
2022-11-19T15:59:10.051Z,5.50
2022-11-19T16:04:17.422Z,7.28
2022-11-19T16:09:24.715Z,8.68
2022-11-19T16:14:46.622Z,11.17
2022-11-19T16:20:02.715Z,9.70
2022-11-19T16:25:13.539Z,8.55
2022-11-19T16:30:19.368Z,7.45
2022-11-19T16:35:24.640Z,9.13
2022-11-19T16:40:52.165Z,11.00
2022-11-19T16:45:55.187Z,7.93
2022-11-19T16:50:58.059Z,9.82
2022-11-19T16:56:02.419Z,10.02
2022-11-19T17:01:06.628Z,8.88
2022-11-19T17:06:20.529Z,7.90
2022-11-19T17:11:56.501Z,11.68
2022-11-19T17:16:59.753Z,9.88
2022-11-19T17:22:04.828Z,11.70
2022-11-19T17:27:23.668Z,8.75
2022-11-19T17:32:26.599Z,12.25
2022-11-19T17:37:29.789Z,12.70
2022-11-19T17:42:51.685Z,12.15
2022-11-19T17:47:54.572Z,10.57
2022-11-19T17:52:57.320Z,9.43
2022-11-19T17:58:01.456Z,10.77
2022-11-19T18:03:04.873Z,12.02
2022-11-19T18:08:07.652Z,12.23
2022-11-19T18:13:24.150Z,11.23
2022-11-19T18:18:27.028Z,9.00
2022-11-19T18:23:32.874Z,9.52
2022-11-19T18:28:44.903Z,14.75
2022-11-19T18:33:50.383Z,15.05
2022-11-19T18:38:54.795Z,12.48
2022-11-19T18:44:16.427Z,11.70
2022-11-19T18:49:19.612Z,15.65
2022-11-19T18:54:23.464Z,10.68
2022-11-19T18:59:29.924Z,9.10
2022-11-19T19:04:32.777Z,11.23
2022-11-19T19:09:37.332Z,15.43
2022-11-19T19:14:41.672Z,10.05
2022-11-19T19:19:44.434Z,12.40
2022-11-19T19:24:47.347Z,9.02
2022-11-19T19:29:51.595Z,10.15
2022-11-19T19:34:54.453Z,11.27
2022-11-19T19:39:57.168Z,7.68
2022-11-19T19:45:02.344Z,9.45
2022-11-19T19:50:05.793Z,9.43
2022-11-19T19:55:09.666Z,8.10
2022-11-19T20:00:14.828Z,16.13
2022-11-19T20:05:17.866Z,8.10
2022-11-19T20:10:20.702Z,9.30
2022-11-19T20:15:24.872Z,8.90
2022-11-19T20:20:27.887Z,9.98
2022-11-19T20:25:30.792Z,9.00
2022-11-19T20:30:35.226Z,10.77
2022-11-19T20:35:37.994Z,9.70
2022-11-19T20:40:40.770Z,10.15
2022-11-19T20:45:44.935Z,10.07
2022-11-19T20:50:47.750Z,9.00
2022-11-19T20:56:04.484Z,7.57
2022-11-19T21:01:11.211Z,8.10
2022-11-19T21:06:14.137Z,8.88
2022-11-19T21:11:17.440Z,8.57
2022-11-19T21:16:23.400Z,8.35
2022-11-19T21:21:27.423Z,7.00
2022-11-19T21:26:31.188Z,8.60
2022-11-19T21:31:42.026Z,7.25
2022-11-19T21:36:46.175Z,10.90
2022-11-19T21:41:49.062Z,10.23
2022-11-19T21:46:53.148Z,7.53
2022-11-19T21:51:56.133Z,9.88
2022-11-19T21:56:58.864Z,10.32
2022-11-19T22:02:02.959Z,8.40
2022-11-19T22:07:06.767Z,9.25
2022-11-19T22:12:09.585Z,8.63
2022-11-19T22:17:13.704Z,9.15
2022-11-19T22:22:16.652Z,8.93
2022-11-19T22:27:19.491Z,8.82
2022-11-19T22:32:23.732Z,10.43
2022-11-19T22:37:26.513Z,8.35
2022-11-19T22:42:29.365Z,6.68
2022-11-19T22:47:33.438Z,8.63
2022-11-19T22:52:36.177Z,7.10
2022-11-19T22:57:38.986Z,8.95
2022-11-19T23:02:43.137Z,6.65
2022-11-19T23:07:45.902Z,6.70
2022-11-19T23:13:06.110Z,8.43
2022-11-19T23:18:10.246Z,8.05
2022-11-19T23:23:13.402Z,6.97
2022-11-19T23:28:16.206Z,7.55
2022-11-19T23:33:20.756Z,5.38
2022-11-19T23:38:23.537Z,8.35
2022-11-19T23:43:26.287Z,6.43
2022-11-19T23:48:30.832Z,5.78
2022-11-19T23:53:33.898Z,6.20
2022-11-19T23:58:37.172Z,5.88
